Observation data for Turkey on 02/14/2018      Previous  Date  Next       Current Mesonet Observations  Soil Data  Daily Summary Page  Observations in Plain Language
KTUR 140600Z 21005KT 05/01 A302 RMK A01 T00490010  RH  077%=      5-min Rain = 0
KTUR 140605Z 20005KT 05/01 A302 RMK A01 T00500011  RH  077%=      5-min Rain = 0
KTUR 140610Z 20006KT 05/01 A302 RMK A01 T00490012  RH  078%=      5-min Rain = 0
KTUR 140615Z 20006KT 05/01 A302 RMK A01 T00520014  RH  077%=      5-min Rain = 0
KTUR 140620Z 20006KT 05/01 A302 RMK A01 T00500012  RH  077%=      5-min Rain = 0
KTUR 140625Z 20006KT 05/01 A302 RMK A01 T00470010  RH  078%=      5-min Rain = 0
KTUR 140630Z 21005KT 05/01 A3019 RMK A01 T00470014  RH  080%=      5-min Rain = 0
KTUR 140635Z 22005KT 05/02 A3019 RMK A01 T00510017  RH  079%=      5-min Rain = 0
KTUR 140640Z 22006KT 06/02 A3019 RMK A01 T00550017  RH  078%=      5-min Rain = 0
KTUR 140645Z 21007KT 06/02 A3019 RMK A01 T00550016  RH  077%=      5-min Rain = 0
KTUR 140650Z 21007KT 05/02 A3019 RMK A01 T00530015  RH  077%=      5-min Rain = 0
KTUR 140655Z 20007KT 05/01 A3019 RMK A01 T00480013  RH  079%=      5-min Rain = 0
KTUR 140700Z 21006KT 05/01 A3019 RMK A01 T00480014  RH  080%=      5-min Rain = 0
KTUR 140705Z 21004KT 05/01 A3019 RMK A01 T00490014  RH  079%=      5-min Rain = 0
KTUR 140710Z 22003KT 05/02 A3019 RMK A01 T00540020  RH  079%=      5-min Rain = 0
KTUR 140715Z 22002KT 06/02 A3019 RMK A01 T00590022  RH  078%=      5-min Rain = 0
KTUR 140720Z 22003KT 06/03 A3019 RMK A01 T00640028  RH  079%=      5-min Rain = 0
KTUR 140725Z 22002KT 07/03 A3019 RMK A01 T00700032  RH  078%=      5-min Rain = 0
KTUR 140730Z 22001KT 08/03 A3019 RMK A01 T00750034  RH  076%=      5-min Rain = 0
KTUR 140735Z 22002KT 08/04 A3019 RMK A01 T00800036  RH  075%=      5-min Rain = 0
KTUR 140740Z 24004KT 08/04 A3019 RMK A01 T00840040  RH  075%=      5-min Rain = 0
KTUR 140745Z 25006KT 08/04 A3018 RMK A01 T00800041  RH  077%=      5-min Rain = 0
KTUR 140750Z 25007KT 08/04 A3018 RMK A01 T00790044  RH  080%=      5-min Rain = 0
KTUR 140755Z 26007KT 08/04 A3018 RMK A01 T00770043  RH  081%=      5-min Rain = 0
KTUR 140800Z 23009KT 08/05 A3018 RMK A01 T00760047  RH  083%=      5-min Rain = 0
KTUR 140805Z 22010KT 08/05 A3018 RMK A01 T00800052  RH  083%=      5-min Rain = 0
KTUR 140810Z 22008KT 09/06 A3018 RMK A01 T00860056  RH  082%=      5-min Rain = 0
KTUR 140815Z 21008KT 09/06 A3018 RMK A01 T00890057  RH  081%=      5-min Rain = 0
KTUR 140820Z 21009KT 09/06 A3018 RMK A01 T00910057  RH  081%=      5-min Rain = 0
KTUR 140825Z 22008KT 09/06 A3018 RMK A01 T00890056  RH  081%=      5-min Rain = 0
KTUR 140830Z 22008KT 09/06 A3018 RMK A01 T00890056  RH  081%=      5-min Rain = 0
KTUR 140835Z 22010KT 09/06 A3018 RMK A01 T00900056  RH  081%=      5-min Rain = 0
KTUR 140840Z 22009KT 09/06 A3018 RMK A01 T00910057  RH  080%=      5-min Rain = 0
KTUR 140845Z 21009KT 09/06 A3018 RMK A01 T00910056  RH  080%=      5-min Rain = 0
KTUR 140850Z 21009KT 09/06 A3017 RMK A01 T00910056  RH  080%=      5-min Rain = 0
KTUR 140855Z 20009KT 09/06 A3017 RMK A01 T00900055  RH  080%=      5-min Rain = 0
KTUR 140900Z 20010KT 09/06 A3017 RMK A01 T00940056  RH  078%=      5-min Rain = 0
KTUR 140905Z 20009KT 09/06 A3017 RMK A01 T00930055  RH  078%=      5-min Rain = 0
KTUR 140910Z 20008KT 09/05 A3016 RMK A01 T00880052  RH  079%=      5-min Rain = 0
KTUR 140915Z 21007KT 08/05 A3016 RMK A01 T00830050  RH  081%=      5-min Rain = 0
KTUR 140920Z 22006KT 08/05 A3016 RMK A01 T00830051  RH  082%=      5-min Rain = 0
KTUR 140925Z 22006KT 08/05 A3015 RMK A01 T00840052  RH  081%=      5-min Rain = 0
KTUR 140930Z 21008KT 09/05 A3016 RMK A01 T00850053  RH  081%=      5-min Rain = 0
KTUR 140935Z 21009KT 09/05 A3015 RMK A01 T00860052  RH  080%=      5-min Rain = 0
KTUR 140940Z 20010KT 09/05 A3016 RMK A01 T00870053  RH  080%=      5-min Rain = 0
KTUR 140945Z 20009KT 09/05 A3015 RMK A01 T00910052  RH  078%=      5-min Rain = 0
KTUR 140950Z 20009KT 09/05 A3015 RMK A01 T00880051  RH  079%=      5-min Rain = 0
KTUR 140955Z 19009KT 09/05 A3015 RMK A01 T00850050  RH  080%=      5-min Rain = 0
KTUR 141000Z 19009KT 08/05 A3015 RMK A01 T00820047  RH  080%=      5-min Rain = 0
KTUR 141005Z 19010KT 09/05 A3015 RMK A01 T00860050  RH  079%=      5-min Rain = 0
KTUR 141010Z 19010KT 09/05 A3016 RMK A01 T00890048  RH  077%=      5-min Rain = 0
KTUR 141015Z 19011KT 09/05 A3015 RMK A01 T00900048  RH  076%=      5-min Rain = 0
KTUR 141020Z 19011KT 09/05 A3015 RMK A01 T00900047  RH  076%=      5-min Rain = 0
KTUR 141025Z 20011KT 09/05 A3015 RMK A01 T00900045  RH  075%=      5-min Rain = 0
KTUR 141030Z 20010KT 09/04 A3015 RMK A01 T00910044  RH  073%=      5-min Rain = 0
KTUR 141035Z 20009KT 09/04 A3015 RMK A01 T00910042  RH  072%=      5-min Rain = 0
KTUR 141040Z 20010KT 09/04 A3015 RMK A01 T00900040  RH  072%=      5-min Rain = 0
KTUR 141045Z 19010KT 09/04 A3015 RMK A01 T00890038  RH  071%=      5-min Rain = 0
KTUR 141050Z 19010KT 09/04 A3015 RMK A01 T00870037  RH  072%=      5-min Rain = 0
KTUR 141055Z 19009KT 09/04 A3015 RMK A01 T00870036  RH  071%=      5-min Rain = 0
KTUR 141100Z 20008KT 09/04 A3015 RMK A01 T00860035  RH  071%=      5-min Rain = 0
KTUR 141105Z 19009KT 09/04 A3015 RMK A01 T00850035  RH  071%=      5-min Rain = 0
KTUR 141110Z 19008KT 09/03 A3014 RMK A01 T00850034  RH  072%=      5-min Rain = 0
KTUR 141115Z 19009KT 08/03 A3014 RMK A01 T00830033  RH  072%=      5-min Rain = 0
KTUR 141120Z 19008KT 08/03 A3014 RMK A01 T00820032  RH  072%=      5-min Rain = 0
KTUR 141125Z 20007KT 08/03 A3014 RMK A01 T00810031  RH  072%=      5-min Rain = 0
KTUR 141130Z 21006KT 08/03 A3014 RMK A01 T00800030  RH  071%=      5-min Rain = 0
KTUR 141135Z 20007KT 08/03 A3014 RMK A01 T00780029  RH  072%=      5-min Rain = 0
KTUR 141140Z 20008KT 08/03 A3014 RMK A01 T00760028  RH  073%=      5-min Rain = 0
KTUR 141145Z 20009KT 08/03 A3015 RMK A01 T00760028  RH  073%=      5-min Rain = 0
KTUR 141150Z 22009KT 08/03 A3015 RMK A01 T00770028  RH  072%=      5-min Rain = 0
KTUR 141155Z 22009KT 08/03 A3014 RMK A01 T00790026  RH  070%=      5-min Rain = 0
KTUR 141200Z 23009KT 08/03 A3014 RMK A01 T00820025  RH  068%=      5-min Rain = 0
KTUR 141205Z 22011KT 09/03 A3014 RMK A01 T00880025  RH  065%=      5-min Rain = 0
KTUR 141210Z 22012KT 09/02 A3014 RMK A01 T00940024  RH  062%=      5-min Rain = 0
KTUR 141215Z 22011KT 09/02 A3014 RMK A01 T00910023  RH  063%=      5-min Rain = 0
KTUR 141220Z 22011KT 09/02 A3015 RMK A01 T00860022  RH  065%=      5-min Rain = 0
KTUR 141225Z 22012KT 09/02 A3015 RMK A01 T00890021  RH  063%=      5-min Rain = 0
KTUR 141230Z 22011KT 09/02 A3015 RMK A01 T00900020  RH  062%=      5-min Rain = 0
KTUR 141235Z 21012KT 09/02 A3015 RMK A01 T00900020  RH  062%=      5-min Rain = 0
KTUR 141240Z 22012KT 09/02 A3015 RMK A01 T00910019  RH  061%=      5-min Rain = 0
KTUR 141245Z 22011KT 09/02 A3015 RMK A01 T00930019  RH  061%=      5-min Rain = 0
KTUR 141250Z 23013KT 10/02 A3015 RMK A01 T00950018  RH  059%=      5-min Rain = 0
KTUR 141255Z 23015KT 10/02 A3015 RMK A01 T01000017  RH  057%=      5-min Rain = 0
KTUR 141300Z 23014KT 10/02 A3015 RMK A01 T00980017  RH  057%=      5-min Rain = 0
KTUR 141305Z 23014KT 10/02 A3015 RMK A01 T00970016  RH  058%=      5-min Rain = 0
KTUR 141310Z 23014KT 10/02 A3015 RMK A01 T00970015  RH  058%=      5-min Rain = 0
KTUR 141315Z 24015KT 10/01 A3015 RMK A01 T00960014  RH  057%=      5-min Rain = 0
KTUR 141320Z 24015KT 10/01 A3014 RMK A01 T00970014  RH  057%=      5-min Rain = 0
KTUR 141325Z 23015KT 10/01 A3014 RMK A01 T00990014  RH  056%=      5-min Rain = 0
KTUR 141330Z 23016KT 10/01 A3014 RMK A01 T01020014  RH  055%=      5-min Rain = 0
KTUR 141335Z 23015KT 10/01 A3014 RMK A01 T01030014  RH  055%=      5-min Rain = 0
KTUR 141340Z 23014KT 10/01 A3014 RMK A01 T01020014  RH  055%=      5-min Rain = 0
KTUR 141345Z 24014KT 10/01 A3014 RMK A01 T01010013  RH  055%=      5-min Rain = 0
KTUR 141350Z 24015KT 10/01 A3014 RMK A01 T01020012  RH  054%=      5-min Rain = 0
KTUR 141355Z 24016KT 10/01 A3014 RMK A01 T01030012  RH  054%=      5-min Rain = 0
KTUR 141400Z 24016KT 11/01 A3014 RMK A01 T01050011  RH  053%=      5-min Rain = 0
KTUR 141405Z 23015KT 11/01 A3013 RMK A01 T01070010  RH  052%=      5-min Rain = 0
KTUR 141410Z 23015KT 11/01 A3013 RMK A01 T01070010  RH  052%=      5-min Rain = 0
KTUR 141415Z 23016KT 11/01 A3014 RMK A01 T01070010  RH  052%=      5-min Rain = 0
KTUR 141420Z 23016KT 11/01 A3014 RMK A01 T01090010  RH  051%=      5-min Rain = 0
KTUR 141425Z 24015KT 11/01 A3014 RMK A01 T01100010  RH  051%=      5-min Rain = 0
KTUR 141430Z 24014KT 11/01 A3014 RMK A01 T01110011  RH  051%=      5-min Rain = 0
KTUR 141435Z 23013KT 11/01 A3014 RMK A01 T01110011  RH  051%=      5-min Rain = 0
KTUR 141440Z 23014KT 11/01 A3014 RMK A01 T01130011  RH  050%=      5-min Rain = 0
KTUR 141445Z 23014KT 11/01 A3014 RMK A01 T01140010  RH  049%=      5-min Rain = 0
KTUR 141450Z 23014KT 12/01 A3014 RMK A01 T01150010  RH  049%=      5-min Rain = 0
KTUR 141455Z 23013KT 12/01 A3014 RMK A01 T01150009  RH  049%=      5-min Rain = 0
KTUR 141500Z 23012KT 12/01 A3014 RMK A01 T01150008  RH  049%=      5-min Rain = 0
KTUR 141505Z 23013KT 12/01 A3015 RMK A01 T01150008  RH  049%=      5-min Rain = 0
KTUR 141510Z 22013KT 12/01 A3015 RMK A01 T01150009  RH  049%=      5-min Rain = 0
KTUR 141515Z 22013KT 12/01 A3015 RMK A01 T01150009  RH  049%=      5-min Rain = 0
KTUR 141520Z 22012KT 12/01 A3015 RMK A01 T01160009  RH  048%=      5-min Rain = 0
KTUR 141525Z 23012KT 12/01 A3015 RMK A01 T01180009  RH  048%=      5-min Rain = 0
KTUR 141530Z 23012KT 12/01 A3015 RMK A01 T01210010  RH  047%=      5-min Rain = 0
KTUR 141535Z 24010KT 13/01 A3015 RMK A01 T01260010  RH  046%=      5-min Rain = 0
KTUR 141540Z 23010KT 13/01 A3015 RMK A01 T01320011  RH  044%=      5-min Rain = 0
KTUR 141545Z 24010KT 14/01 A3015 RMK A01 T01400011  RH  042%=      5-min Rain = 0
KTUR 141550Z 24011KT 15/01 A3015 RMK A01 T01460010  RH  040%=      5-min Rain = 0
KTUR 141555Z 24012KT 15/01 A3015 RMK A01 T01510010  RH  039%=      5-min Rain = 0
KTUR 141600Z 24012KT 16/01 A3015 RMK A01 T01570009  RH  037%=      5-min Rain = 0
KTUR 141605Z 23012KT 16/01 A3015 RMK A01 T01580009  RH  037%=      5-min Rain = 0
KTUR 141610Z 24011KT 16/01 A3015 RMK A01 T01610011  RH  037%=      5-min Rain = 0
KTUR 141615Z 24013KT 17/01 A3015 RMK A01 T01660011  RH  035%=      5-min Rain = 0
KTUR 141620Z 24013G18KT 17/01 A3015 RMK A01 T01700010  RH  034%=      5-min Rain = 0
KTUR 141625Z 24014KT 17/01 A3014 RMK A01 T01730008  RH  033%=      5-min Rain = 0
KTUR 141630Z 24014KT 18/01 A3014 RMK A01 T01770007  RH  032%=      5-min Rain = 0
KTUR 141635Z 23016KT 18/01 A3014 RMK A01 T01810006  RH  031%=      5-min Rain = 0
KTUR 141640Z 23016KT 18/00 A3014 RMK A01 T01820004  RH  031%=      5-min Rain = 0
KTUR 141645Z 24014G19KT 18/00 A3014 RMK A01 T01830004  RH  030%=      5-min Rain = 0
KTUR 141650Z 23016KT 19/00 A3014 RMK A01 T01860002  RH  029%=      5-min Rain = 0
KTUR 141655Z 24015G20KT 19/00 A3014 RMK A01 T01880002  RH  029%=      5-min Rain = 0
KTUR 141700Z 24014KT 19/00 A3014 RMK A01 T01890003  RH  029%=      5-min Rain = 0
KTUR 141705Z 25015KT 19/00 A3014 RMK A01 T01900004  RH  029%=      5-min Rain = 0
KTUR 141710Z 24013KT 20/01 A3014 RMK A01 T01970005  RH  028%=      5-min Rain = 0
KTUR 141715Z 24014KT 20/00 A3013 RMK A01 T02040004  RH  027%=      5-min Rain = 0
KTUR 141720Z 24013KT 21/01 A3013 RMK A01 T02070005  RH  026%=      5-min Rain = 0
KTUR 141725Z 24012KT 21/01 A3013 RMK A01 T02110005  RH  026%=      5-min Rain = 0
KTUR 141730Z 24012KT 22/00 A3012 RMK A01 T02160004  RH  025%=      5-min Rain = 0
KTUR 141735Z 24015KT 23/M00 A3012 RMK A01 T02251002  RH  022%=      5-min Rain = 0
KTUR 141740Z 23016KT 23/M00 A3012 RMK A01 T02281003  RH  022%=      5-min Rain = 0
KTUR 141745Z 23014KT 23/M00 A3011 RMK A01 T02321002  RH  021%=      5-min Rain = 0
KTUR 141750Z 22014G20KT 23/M00 A3011 RMK A01 T02341003  RH  021%=      5-min Rain = 0
KTUR 141755Z 23013KT 24/M01 A3011 RMK A01 T02361005  RH  021%=      5-min Rain = 0
KTUR 141800Z 22014KT 24/M01 A301 RMK A01 T02411010  RH  019%=      5-min Rain = 0
KTUR 141805Z 22016G21KT 25/M02 A301 RMK A01 T02451018  RH  018%=      5-min Rain = 0
KTUR 141810Z 22017KT 25/M02 A301 RMK A01 T02461016  RH  018%=      5-min Rain = 0
KTUR 141815Z 23015KT 25/M02 A3009 RMK A01 T02501015  RH  018%=      5-min Rain = 0
KTUR 141820Z 23015G20KT 25/M01 A3009 RMK A01 T02501013  RH  018%=      5-min Rain = 0
KTUR 141825Z 22015KT 25/M02 A3008 RMK A01 T02541018  RH  017%=      5-min Rain = 0
KTUR 141830Z 22014G19KT 26/M02 A3008 RMK A01 T02581022  RH  016%=      5-min Rain = 0
KTUR 141835Z 22013G18KT 26/M02 A3008 RMK A01 T02641024  RH  015%=      5-min Rain = 0
KTUR 141840Z 22015G20KT 27/M03 A3007 RMK A01 T02651033  RH  014%=      5-min Rain = 0
KTUR 141845Z 23015G20KT 27/M04 A3007 RMK A01 T02691036  RH  013%=      5-min Rain = 0
KTUR 141850Z 22016KT 27/M04 A3007 RMK A01 T02711043  RH  013%=      5-min Rain = 0
KTUR 141855Z 22015G24KT 27/M04 A3007 RMK A01 T02711043  RH  013%=      5-min Rain = 0
KTUR 141900Z 23015G21KT 27/M05 A3006 RMK A01 T02711045  RH  012%=      5-min Rain = 0
KTUR 141905Z 23016G22KT 27/M05 A3006 RMK A01 T02711046  RH  012%=      5-min Rain = 0
KTUR 141910Z 22017G23KT 27/M05 A3005 RMK A01 T02741048  RH  012%=      5-min Rain = 0
KTUR 141915Z 22015KT 28/M05 A3005 RMK A01 T02751050  RH  012%=      5-min Rain = 0
KTUR 141920Z 22018G23KT 28/M05 A3005 RMK A01 T02761052  RH  011%=      5-min Rain = 0
KTUR 141925Z 22020KT 28/M05 A3005 RMK A01 T02771053  RH  011%=      5-min Rain = 0
KTUR 141930Z 23017G25KT 28/M05 A3005 RMK A01 T02761051  RH  011%=      5-min Rain = 0
KTUR 141935Z 21019KT 28/M05 A3004 RMK A01 T02771051  RH  011%=      5-min Rain = 0
KTUR 141940Z 22018KT 28/M05 A3004 RMK A01 T02771051  RH  011%=      5-min Rain = 0
KTUR 141945Z 22015G21KT 28/M05 A3003 RMK A01 T02811048  RH  011%=      5-min Rain = 0
KTUR 141950Z 22018G25KT 28/M05 A3002 RMK A01 T02791048  RH  012%=      5-min Rain = 0
KTUR 141955Z 22017G24KT 28/M05 A3002 RMK A01 T02811053  RH  011%=      5-min Rain = 0
KTUR 142000Z 21019G25KT 28/M05 A3002 RMK A01 T02791054  RH  011%=      5-min Rain = 0
KTUR 142005Z 22017G22KT 28/M05 A3002 RMK A01 T02811054  RH  011%=      5-min Rain = 0
KTUR 142010Z 21016KT 28/M06 A3001 RMK A01 T02811057  RH  011%=      5-min Rain = 0
KTUR 142015Z 20019G30KT 28/M06 A3001 RMK A01 T02821056  RH  011%=      5-min Rain = 0
KTUR 142020Z 21018G24KT 28/M06 A3001 RMK A01 T02831058  RH  010%=      5-min Rain = 0
KTUR 142025Z 22020G25KT 28/M06 A3001 RMK A01 T02831062  RH  010%=      5-min Rain = 0
KTUR 142030Z 22018G25KT 29/M06 A30 RMK A01 T02851062  RH  010%=      5-min Rain = 0
KTUR 142035Z 22016G22KT 28/M06 A30 RMK A01 T02831064  RH  010%=      5-min Rain = 0
KTUR 142040Z 22020G26KT 29/M06 A2999 RMK A01 T02861063  RH  010%=      5-min Rain = 0
KTUR 142045Z 21019KT 28/M06 A2999 RMK A01 T02831063  RH  010%=      5-min Rain = 0
KTUR 142050Z 21018G24KT 28/M06 A2999 RMK A01 T02821061  RH  010%=      5-min Rain = 0
KTUR 142055Z 21021G29KT 28/M06 A2998 RMK A01 T02821061  RH  010%=      5-min Rain = 0
KTUR 142100Z 21019G26KT 28/M06 A2998 RMK A01 T02821061  RH  010%=      5-min Rain = 0
KTUR 142105Z 22019G24KT 29/M06 A2998 RMK A01 T02851058  RH  010%=      5-min Rain = 0
KTUR 142110Z 22018G24KT 28/M06 A2998 RMK A01 T02841057  RH  010%=      5-min Rain = 0
KTUR 142115Z 21022G29KT 29/M06 A2998 RMK A01 T02851055  RH  011%=      5-min Rain = 0
KTUR 142120Z 23018KT 28/M06 A2998 RMK A01 T02841055  RH  011%=      5-min Rain = 0
KTUR 142125Z 21018G25KT 29/M05 A2997 RMK A01 T02871052  RH  011%=      5-min Rain = 0
KTUR 142130Z 21019G25KT 29/M05 A2997 RMK A01 T02891051  RH  011%=      5-min Rain = 0
KTUR 142135Z 22019G25KT 29/M05 A2997 RMK A01 T02891051  RH  011%=      5-min Rain = 0
KTUR 142140Z 22018G26KT 29/M05 A2997 RMK A01 T02881050  RH  011%=      5-min Rain = 0
KTUR 142145Z 22020G30KT 29/M05 A2996 RMK A01 T02881047  RH  011%=      5-min Rain = 0
KTUR 142150Z 22020G27KT 29/M05 A2996 RMK A01 T02881047  RH  011%=      5-min Rain = 0
KTUR 142155Z 22019G24KT 29/M05 A2996 RMK A01 T02891046  RH  011%=      5-min Rain = 0
KTUR 142200Z 22017G24KT 29/M05 A2996 RMK A01 T02891047  RH  011%=      5-min Rain = 0
KTUR 142205Z 21014G19KT 29/M05 A2995 RMK A01 T02901047  RH  011%=      5-min Rain = 0
KTUR 142210Z 23017G23KT 29/M05 A2995 RMK A01 T02921045  RH  011%=      5-min Rain = 0
KTUR 142215Z 23017G22KT 29/M04 A2995 RMK A01 T02911043  RH  011%=      5-min Rain = 0
KTUR 142220Z 23020G28KT 29/M04 A2994 RMK A01 T02921039  RH  011%=      5-min Rain = 0
KTUR 142225Z 23021G30KT 29/M04 A2994 RMK A01 T02911038  RH  012%=      5-min Rain = 0
KTUR 142230Z 21020KT 29/M03 A2994 RMK A01 T02911032  RH  012%=      5-min Rain = 0
KTUR 142235Z 21022G28KT 29/M03 A2993 RMK A01 T02911029  RH  012%=      5-min Rain = 0
KTUR 142240Z 22020G28KT 29/M03 A2993 RMK A01 T02911027  RH  013%=      5-min Rain = 0
KTUR 142245Z 21021G28KT 29/M03 A2993 RMK A01 T02911025  RH  013%=      5-min Rain = 0
KTUR 142250Z 21018G26KT 29/M02 A2993 RMK A01 T02911024  RH  013%=      5-min Rain = 0
KTUR 142255Z 21018KT 29/M03 A2993 RMK A01 T02901031  RH  012%=      5-min Rain = 0
KTUR 142300Z 21017KT 29/M03 A2992 RMK A01 T02881031  RH  012%=      5-min Rain = 0
KTUR 142305Z 21018G24KT 29/M03 A2992 RMK A01 T02861030  RH  013%=      5-min Rain = 0
KTUR 142310Z 21018G23KT 28/M03 A2992 RMK A01 T02841027  RH  013%=      5-min Rain = 0
KTUR 142315Z 21016KT 28/M03 A2992 RMK A01 T02831025  RH  013%=      5-min Rain = 0
KTUR 142320Z 21016G24KT 28/M02 A2992 RMK A01 T02831023  RH  014%=      5-min Rain = 0
KTUR 142325Z 21018G25KT 28/M02 A2992 RMK A01 T02831017  RH  014%=      5-min Rain = 0
KTUR 142330Z 20020G26KT 28/M01 A2992 RMK A01 T02831012  RH  015%=      5-min Rain = 0
KTUR 142335Z 19020G25KT 28/M01 A2992 RMK A01 T02811014  RH  015%=      5-min Rain = 0
KTUR 142340Z 20015KT 28/M01 A2992 RMK A01 T02781014  RH  015%=      5-min Rain = 0
KTUR 142345Z 18018G24KT 27/M01 A2992 RMK A01 T02721005  RH  016%=      5-min Rain = 0
KTUR 142350Z 18019KT 26/01 A2992 RMK A01 T02630005  RH  019%=      5-min Rain = 0
KTUR 142355Z 18017G22KT 26/01 A2992 RMK A01 T02580007  RH  020%=      5-min Rain = 0
KTUR 150000Z 18016G21KT 25/01 A2992 RMK A01 T02540008  RH  020%=      5-min Rain = 0
KTUR 150005Z 17018KT 25/01 A2992 RMK A01 T02510009  RH  021%=      5-min Rain = 0
KTUR 150010Z 17015KT 25/01 A2992 RMK A01 T02480011  RH  021%=      5-min Rain = 0
KTUR 150015Z 18014KT 24/01 A2992 RMK A01 T02440011  RH  022%=      5-min Rain = 0
KTUR 150020Z 17013KT 24/01 A2992 RMK A01 T02420011  RH  022%=      5-min Rain = 0
KTUR 150025Z 17013KT 24/01 A2992 RMK A01 T02380012  RH  023%=      5-min Rain = 0
KTUR 150030Z 17013KT 24/01 A2992 RMK A01 T02360012  RH  023%=      5-min Rain = 0
KTUR 150035Z 17012KT 23/01 A2992 RMK A01 T02330013  RH  024%=      5-min Rain = 0
KTUR 150040Z 17013KT 23/01 A2992 RMK A01 T02320013  RH  024%=      5-min Rain = 0
KTUR 150045Z 17014KT 23/01 A2992 RMK A01 T02310014  RH  024%=      5-min Rain = 0
KTUR 150050Z 17014KT 23/02 A2992 RMK A01 T02320015  RH  024%=      5-min Rain = 0
KTUR 150055Z 17014KT 23/02 A2992 RMK A01 T02300016  RH  025%=      5-min Rain = 0
KTUR 150100Z 17014KT 23/02 A2992 RMK A01 T02280015  RH  025%=      5-min Rain = 0
KTUR 150105Z 17014KT 23/02 A2992 RMK A01 T02260015  RH  025%=      5-min Rain = 0
KTUR 150110Z 17014KT 23/01 A2992 RMK A01 T02250014  RH  025%=      5-min Rain = 0
KTUR 150115Z 17014KT 22/01 A2992 RMK A01 T02230014  RH  025%=      5-min Rain = 0
KTUR 150120Z 17014KT 22/01 A2992 RMK A01 T02210014  RH  026%=      5-min Rain = 0
KTUR 150125Z 18014KT 22/01 A2992 RMK A01 T02200014  RH  026%=      5-min Rain = 0
KTUR 150130Z 18014KT 22/02 A2992 RMK A01 T02170015  RH  027%=      5-min Rain = 0
KTUR 150135Z 20013KT 21/02 A2993 RMK A01 T02100015  RH  028%=      5-min Rain = 0
KTUR 150140Z 19014KT 21/01 A2993 RMK A01 T02100014  RH  028%=      5-min Rain = 0
KTUR 150145Z 19013KT 21/01 A2993 RMK A01 T02060013  RH  028%=      5-min Rain = 0
KTUR 150150Z 18013KT 20/01 A2993 RMK A01 T02020013  RH  029%=      5-min Rain = 0
KTUR 150155Z 19012KT 20/01 A2993 RMK A01 T02000012  RH  029%=      5-min Rain = 0
KTUR 150200Z 19012KT 20/01 A2993 RMK A01 T01980012  RH  029%=      5-min Rain = 0
KTUR 150205Z 19011KT 19/01 A2993 RMK A01 T01930011  RH  030%=      5-min Rain = 0
KTUR 150210Z 19012KT 19/01 A2993 RMK A01 T01910011  RH  030%=      5-min Rain = 0
KTUR 150215Z 20010KT 19/01 A2993 RMK A01 T01880010  RH  031%=      5-min Rain = 0
KTUR 150220Z 20011KT 18/01 A2993 RMK A01 T01810009  RH  032%=      5-min Rain = 0
KTUR 150225Z 20011KT 18/01 A2993 RMK A01 T01780008  RH  032%=      5-min Rain = 0
KTUR 150230Z 20011KT 17/01 A2993 RMK A01 T01730007  RH  033%=      5-min Rain = 0
KTUR 150235Z 20011KT 17/01 A2994 RMK A01 T01710008  RH  034%=      5-min Rain = 0
KTUR 150240Z 20011KT 17/01 A2994 RMK A01 T01710008  RH  034%=      5-min Rain = 0
KTUR 150245Z 20011KT 17/01 A2994 RMK A01 T01720007  RH  033%=      5-min Rain = 0
KTUR 150250Z 20010KT 17/01 A2994 RMK A01 T01720007  RH  033%=      5-min Rain = 0
KTUR 150255Z 21010KT 17/01 A2994 RMK A01 T01710006  RH  033%=      5-min Rain = 0
KTUR 150300Z 21009KT 17/01 A2994 RMK A01 T01710005  RH  033%=      5-min Rain = 0
KTUR 150305Z 21010KT 17/01 A2994 RMK A01 T01730005  RH  032%=      5-min Rain = 0
KTUR 150310Z 20011KT 18/01 A2994 RMK A01 T01800005  RH  031%=      5-min Rain = 0
KTUR 150315Z 20010KT 18/01 A2994 RMK A01 T01830006  RH  031%=      5-min Rain = 0
KTUR 150320Z 20010KT 18/01 A2994 RMK A01 T01800005  RH  031%=      5-min Rain = 0
KTUR 150325Z 20011KT 18/01 A2995 RMK A01 T01810007  RH  031%=      5-min Rain = 0
KTUR 150330Z 20010KT 18/01 A2994 RMK A01 T01810008  RH  031%=      5-min Rain = 0
KTUR 150335Z 19011KT 18/01 A2994 RMK A01 T01780007  RH  032%=      5-min Rain = 0
KTUR 150340Z 19011KT 18/01 A2994 RMK A01 T01780007  RH  032%=      5-min Rain = 0
KTUR 150345Z 18011KT 18/01 A2994 RMK A01 T01780008  RH  032%=      5-min Rain = 0
KTUR 150350Z 19011KT 18/01 A2994 RMK A01 T01780010  RH  033%=      5-min Rain = 0
KTUR 150355Z 19011KT 18/01 A2994 RMK A01 T01820013  RH  033%=      5-min Rain = 0
KTUR 150400Z 19011KT 19/02 A2995 RMK A01 T01850015  RH  032%=      5-min Rain = 0
KTUR 150405Z 19011KT 18/02 A2995 RMK A01 T01830015  RH  033%=      5-min Rain = 0
KTUR 150410Z 19012KT 18/02 A2995 RMK A01 T01830015  RH  033%=      5-min Rain = 0
KTUR 150415Z 19013KT 19/02 A2995 RMK A01 T01890016  RH  032%=      5-min Rain = 0
KTUR 150420Z 19013KT 20/02 A2995 RMK A01 T01950017  RH  031%=      5-min Rain = 0
KTUR 150425Z 19012KT 20/02 A2995 RMK A01 T01960018  RH  031%=      5-min Rain = 0
KTUR 150430Z 19013KT 20/02 A2995 RMK A01 T01970019  RH  031%=      5-min Rain = 0
KTUR 150435Z 20013KT 20/02 A2995 RMK A01 T02010022  RH  031%=      5-min Rain = 0
KTUR 150440Z 20015KT 21/03 A2995 RMK A01 T02100025  RH  030%=      5-min Rain = 0
KTUR 150445Z 20015KT 22/03 A2994 RMK A01 T02150027  RH  029%=      5-min Rain = 0
KTUR 150450Z 20015KT 22/03 A2994 RMK A01 T02180027  RH  029%=      5-min Rain = 0
KTUR 150455Z 20014KT 22/03 A2994 RMK A01 T02160026  RH  029%=      5-min Rain = 0
KTUR 150500Z 20014KT 21/03 A2994 RMK A01 T02130025  RH  029%=      5-min Rain = 0
KTUR 150505Z 20012KT 21/03 A2994 RMK A01 T02080025  RH  030%=      5-min Rain = 0
KTUR 150510Z 19012KT 20/02 A2994 RMK A01 T02020024  RH  031%=      5-min Rain = 0
KTUR 150515Z 18012KT 20/02 A2995 RMK A01 T01960024  RH  032%=      5-min Rain = 0
KTUR 150520Z 19012KT 19/02 A2994 RMK A01 T01900022  RH  033%=      5-min Rain = 0
KTUR 150525Z 20013G18KT 19/02 A2994 RMK A01 T01890023  RH  033%=      5-min Rain = 0
KTUR 150530Z 20014KT 19/02 A2994 RMK A01 T01940023  RH  032%=      5-min Rain = 0
KTUR 150535Z 21015KT 20/03 A2994 RMK A01 T01990026  RH  032%=      5-min Rain = 0
KTUR 150540Z 21014G19KT 20/03 A2995 RMK A01 T02030029  RH  032%=      5-min Rain = 0
KTUR 150545Z 22009KT 20/03 A2995 RMK A01 T01980028  RH  033%=      5-min Rain = 0
KTUR 150550Z 22009KT 19/03 A2995 RMK A01 T01900030  RH  035%=      5-min Rain = 0
KTUR 150555Z 22010KT 19/04 A2995 RMK A01 T01890035  RH  036%=      5-min Rain = 0

Page generated in 0.0095 seconds.